Time;durP1;ratioP1;P1;durP2;ratioP2;P2;SDS_P1;SDS_P2;PMS_P1;PMS_P2;Temp;Humidity;BMP_temperature;BMP_pressure;BME280_temperature;BME280_humidity;BME280_pressure;Samples;Min_cycle;Max_cycle;Signal;HPM_P1;HPM_P2
2022/03/20 00:02:17;;;;;;;;;;;;;;;;;;5024487;28;20011;-78
2022/03/20 00:04:42;;;;;;;;;;;;;;;;;;5041632;28;19913;-79
2022/03/20 00:07:11;;;;;;;;;;;;;;;;;;5024397;28;19975;-79
2022/03/20 00:09:36;;;;;;;;;;;;;;;;;;5041846;28;19917;-79
2022/03/20 00:12:03;;;;;;;;;;;;;;;;;;5023889;28;20519;-80
2022/03/20 00:14:29;;;;;;;;;;;;;;;;;;5041967;28;19916;-81
2022/03/20 00:16:55;;;;;;;;;;;;;;;;;;5022404;28;19973;-79
2022/03/20 00:19:20;;;;;;;;;;;;;;;;;;5022800;28;19956;-80
2022/03/20 00:21:45;;;;;;;;;;;;;;;;;;5023171;28;19912;-79
2022/03/20 00:24:10;;;;;;;;;;;;;;;;;;5029976;28;19966;-80
2022/03/20 00:26:35;;;;;;;;;;;;;;;;;;5039146;28;19915;-79
2022/03/20 00:29:00;;;;;;;;;;;;;;;;;;5038766;28;19913;-78
2022/03/20 00:31:25;;;;;;;;;;;;;;;;;;5039718;28;19917;-79
2022/03/20 00:33:50;;;;;;;;;;;;;;;;;;5039411;28;20090;-79
2022/03/20 00:36:16;;;;;;;;;;;;;;;;;;5040573;28;19909;-79
2022/03/20 00:38:41;;;;;;;;;;;;;;;;;;5040221;28;19916;-77
2022/03/20 00:41:06;;;;;;;;;;;;;;;;;;5039473;28;19905;-80
2022/03/20 00:43:31;;;;;;;;;;;;;;;;;;5040181;28;19924;-80
2022/03/20 00:45:56;;;;;;;;;;;;;;;;;;5041275;28;19977;-80
2022/03/20 00:48:21;;;;;;;;;;;;;;;;;;5041034;28;20008;-80
2022/03/20 00:50:46;;;;;;;;;;;;;;;;;;5039615;28;19917;-79
2022/03/20 00:53:13;;;;;;;;;;;;;;;;;;5040279;28;19920;-80
2022/03/20 00:55:38;;;;;;;;;;;;;;;;;;5039731;28;19948;-80
2022/03/20 00:58:03;;;;;;;;;;;;;;;;;;5040424;28;19916;-80
2022/03/20 01:00:28;;;;;;;;;;;;;;;;;;5041444;28;19932;-80
2022/03/20 01:02:54;;;;;;;;;;;;;;;;;;5040654;28;20541;-81
2022/03/20 01:05:19;;;;;;;;;;;;;;;;;;5040564;28;20413;-80
2022/03/20 01:07:44;;;;;;;;;;;;;;;;;;5042452;28;19909;-81
2022/03/20 01:10:09;;;;;;;;;;;;;;;;;;5041454;28;19960;-80
2022/03/20 01:12:34;;;;;;;;;;;;;;;;;;5040411;28;19955;-79
2022/03/20 01:15:00;;;;;;;;;;;;;;;;;;5042302;28;19909;-80
2022/03/20 01:17:25;;;;;;;;;;;;;;;;;;5042405;28;19916;-79
2022/03/20 01:19:51;;;;;;;;;;;;;;;;;;5041179;28;19909;-82
2022/03/20 01:22:16;;;;;;;;;;;;;;;;;;5039652;28;19913;-79
2022/03/20 01:24:41;;;;;;;;;;;;;;;;;;5039677;28;19925;-80
2022/03/20 01:27:07;;;;;;;;;;;;;;;;;;5040872;28;19909;-79
2022/03/20 01:29:34;;;;;;;;;;;;;;;;;;5039566;28;19968;-79
2022/03/20 01:31:59;;;;;;;;;;;;;;;;;;5040054;28;19905;-79
2022/03/20 01:34:25;;;;;;;;;;;;;;;;;;5040758;28;19909;-79
2022/03/20 01:36:51;;;;;;;;;;;;;;;;;;5041461;28;19955;-80
2022/03/20 01:39:16;;;;;;;;;;;;;;;;;;5040434;28;19909;-82
2022/03/20 01:41:41;;;;;;;;;;;;;;;;;;5041098;28;20053;-80
2022/03/20 01:44:07;;;;;;;;;;;;;;;;;;5041264;28;19931;-80
2022/03/20 01:46:32;;;;;;;;;;;;;;;;;;5039327;28;20370;-78
2022/03/20 01:48:57;;;;;;;;;;;;;;;;;;5041445;28;19975;-80
2022/03/20 01:52:10;;;;;;;;;;;;;;;;;;5040073;28;19909;-79
2022/03/20 01:54:07;;;;;;;;;;;;;;;;;;5040294;28;20354;-82
2022/03/20 01:56:33;;;;;;;;;;;;;;;;;;5040089;28;19971;-79
2022/03/20 01:59:01;;;;;;;;;;;;;;;;;;5039596;28;19905;-80
2022/03/20 02:01:26;;;;;;;;;;;;;;;;;;5040351;28;19967;-80
2022/03/20 02:03:53;;;;;;;;;;;;;;;;;;5040462;28;19905;-79
2022/03/20 02:06:18;;;;;;;;;;;;;;;;;;5039230;28;20164;-81
2022/03/20 02:08:43;;;;;;;;;;;;;;;;;;5038109;28;20259;-81
2022/03/20 02:11:08;;;;;;;;;;;;;;;;;;5038331;28;19909;-81
2022/03/20 02:13:33;;;;;;;;;;;;;;;;;;5039670;28;19909;-82
2022/03/20 02:15:58;;;;;;;;;;;;;;;;;;5038767;28;19935;-80
2022/03/20 02:18:24;;;;;;;;;;;;;;;;;;5038028;28;19963;-79
2022/03/20 02:20:51;;;;;;;;;;;;;;;;;;5039106;28;20007;-80
2022/03/20 02:23:17;;;;;;;;;;;;;;;;;;5039251;28;19924;-79
2022/03/20 02:25:42;;;;;;;;;;;;;;;;;;5039248;28;19913;-79
2022/03/20 02:28:09;;;;;;;;;;;;;;;;;;5039176;28;19963;-81
2022/03/20 02:30:35;;;;;;;;;;;;;;;;;;5040051;28;20074;-80
2022/03/20 02:33:00;;;;;;;;;;;;;;;;;;5022409;28;20397;-81
2022/03/20 02:35:26;;;;;;;;;;;;;;;;;;5023166;28;19956;-81
2022/03/20 02:37:51;;;;;;;;;;;;;;;;;;5022850;28;19909;-80
2022/03/20 02:40:17;;;;;;;;;;;;;;;;;;5041154;28;19931;-82
2022/03/20 02:42:44;;;;;;;;;;;;;;;;;;5023021;28;19921;-80
2022/03/20 02:45:09;;;;;;;;;;;;;;;;;;5022465;28;20003;-80
2022/03/20 02:47:34;;;;;;;;;;;;;;;;;;5022366;28;19909;-79
2022/03/20 02:49:59;;;;;;;;;;;;;;;;;;5023120;28;19917;-80
2022/03/20 02:52:24;;;;;;;;;;;;;;;;;;5040930;28;20400;-81
2022/03/20 02:54:50;;;;;;;;;;;;;;;;;;5039761;28;19909;-81
2022/03/20 02:57:15;;;;;;;;;;;;;;;;;;5039494;28;19909;-80
2022/03/20 02:59:40;;;;;;;;;;;;;;;;;;5039555;28;19988;-80
2022/03/20 03:02:05;;;;;;;;;;;;;;;;;;5021865;28;20016;-81
2022/03/20 03:04:30;;;;;;;;;;;;;;;;;;5021867;28;19916;-80
2022/03/20 03:06:55;;;;;;;;;;;;;;;;;;5021021;28;20469;-82
2022/03/20 03:12:05;;;;;;;;;;;;;;;;;;5038492;28;19967;-81
2022/03/20 03:17:14;;;;;;;;;;;;;;;;;;5042284;28;19916;-81
2022/03/20 03:19:39;;;;;;;;;;;;;;;;;;5041736;28;19910;-80
2022/03/20 03:22:04;;;;;;;;;;;;;;;;;;5041475;28;19909;-80
2022/03/20 03:24:29;;;;;;;;;;;;;;;;;;5031837;28;19928;-79
2022/03/20 03:26:54;;;;;;;;;;;;;;;;;;5040654;28;20282;-79
2022/03/20 03:29:19;;;;;;;;;;;;;;;;;;5039081;28;19917;-80
2022/03/20 03:31:45;;;;;;;;;;;;;;;;;;5040084;28;19959;-80
2022/03/20 03:36:54;;;;;;;;;;;;;;;;;;5041647;28;19967;-81
2022/03/20 03:39:19;;;;;;;;;;;;;;;;;;5041944;28;19909;-81
2022/03/20 03:41:45;;;;;;;;;;;;;;;;;;5040751;28;19924;-81
2022/03/20 03:44:10;;;;;;;;;;;;;;;;;;5041124;28;20318;-80
2022/03/20 03:46:35;;;;;;;;;;;;;;;;;;5039390;28;19913;-79
2022/03/20 03:49:01;;;;;;;;;;;;;;;;;;5038608;28;19929;-80
2022/03/20 03:51:26;;;;;;;;;;;;;;;;;;5040006;28;19909;-79
2022/03/20 03:53:51;;;;;;;;;;;;;;;;;;5040290;28;19910;-80
2022/03/20 03:56:19;;;;;;;;;;;;;;;;;;5040687;28;19909;-80
2022/03/20 03:58:44;;;;;;;;;;;;;;;;;;5041615;28;20337;-81
2022/03/20 04:01:09;;;;;;;;;;;;;;;;;;5041255;28;19931;-80
2022/03/20 04:03:34;;;;;;;;;;;;;;;;;;5038837;28;19910;-79
2022/03/20 04:05:59;;;;;;;;;;;;;;;;;;5039477;28;20035;-80
2022/03/20 04:08:24;;;;;;;;;;;;;;;;;;5041025;28;20346;-80
2022/03/20 04:10:49;;;;;;;;;;;;;;;;;;5040123;28;20020;-81
2022/03/20 04:13:15;;;;;;;;;;;;;;;;;;5039642;28;19917;-79
2022/03/20 04:15:40;;;;;;;;;;;;;;;;;;5041083;28;19897;-79
2022/03/20 04:18:05;;;;;;;;;;;;;;;;;;5039192;28;19960;-79
2022/03/20 04:20:30;;;;;;;;;;;;;;;;;;5039588;28;19992;-78
2022/03/20 04:25:39;;;;;;;;;;;;;;;;;;5040703;28;20071;-80
2022/03/20 04:28:05;;;;;;;;;;;;;;;;;;5022954;28;20012;-79
2022/03/20 04:30:30;;;;;;;;;;;;;;;;;;5041723;28;19921;-79
2022/03/20 04:32:56;;;;;;;;;;;;;;;;;;5023709;28;19917;-79
2022/03/20 04:35:23;;;;;;;;;;;;;;;;;;5041636;28;19913;-80
2022/03/20 04:37:48;;;;;;;;;;;;;;;;;;5024024;28;19909;-79
2022/03/20 04:40:13;;;;;;;;;;;;;;;;;;5023094;28;19916;-80
2022/03/20 04:42:38;;;;;;;;;;;;;;;;;;5040696;28;19999;-79
2022/03/20 04:45:03;;;;;;;;;;;;;;;;;;5023814;28;20388;-78
2022/03/20 04:58:30;;;;;;;;;;;;;;;;;;5040564;28;19916;-79
2022/03/20 05:00:55;;;;;;;;;;;;;;;;;;5041529;28;19990;-79
2022/03/20 05:03:21;;;;;;;;;;;;;;;;;;5042318;28;19905;-79
2022/03/20 05:05:46;;;;;;;;;;;;;;;;;;5040874;28;19909;-79
2022/03/20 05:08:11;;;;;;;;;;;;;;;;;;5022903;28;19909;-80
2022/03/20 05:13:20;;;;;;;;;;;;;;;;;;5039752;28;19919;-81
2022/03/20 05:15:46;;;;;;;;;;;;;;;;;;5040016;28;19969;-80
2022/03/20 05:18:11;;;;;;;;;;;;;;;;;;5021603;28;20055;-79
2022/03/20 05:20:36;;;;;;;;;;;;;;;;;;5021277;28;19910;-79
2022/03/20 05:23:02;;;;;;;;;;;;;;;;;;5040476;28;20385;-81
2022/03/20 05:25:30;;;;;;;;;;;;;;;;;;5036190;28;19927;-79
2022/03/20 05:27:55;;;;;;;;;;;;;;;;;;5039840;28;19909;-80
2022/03/20 05:30:20;;;;;;;;;;;;;;;;;;5038215;28;19940;-80
2022/03/20 05:32:45;;;;;;;;;;;;;;;;;;5036917;28;19913;-79
2022/03/20 05:35:11;;;;;;;;;;;;;;;;;;5037728;28;19909;-79
2022/03/20 05:37:36;;;;;;;;;;;;;;;;;;5036357;28;20275;-79
2022/03/20 05:40:01;;;;;;;;;;;;;;;;;;5036904;28;19910;-79
2022/03/20 05:42:26;;;;;;;;;;;;;;;;;;5038852;28;19963;-80
2022/03/20 05:44:51;;;;;;;;;;;;;;;;;;5037281;28;19909;-79
2022/03/20 05:47:17;;;;;;;;;;;;;;;;;;5037869;28;20272;-78
2022/03/20 05:49:42;;;;;;;;;;;;;;;;;;5036882;28;19921;-80
2022/03/20 05:52:07;;;;;;;;;;;;;;;;;;5036514;28;19909;-80
2022/03/20 05:54:32;;;;;;;;;;;;;;;;;;5037081;28;20363;-79
2022/03/20 05:59:42;;;;;;;;;;;;;;;;;;5039609;28;19920;-80
2022/03/20 06:02:09;;;;;;;;;;;;;;;;;;5039586;28;19909;-79
2022/03/20 06:04:34;;;;;;;;;;;;;;;;;;5039662;28;19909;-80
2022/03/20 06:06:59;;;;;;;;;;;;;;;;;;5038072;28;19920;-81
2022/03/20 06:09:24;;;;;;;;;;;;;;;;;;5038409;28;19921;-78
2022/03/20 06:11:49;;;;;;;;;;;;;;;;;;5038192;28;19917;-79
2022/03/20 06:14:17;;;;;;;;;;;;;;;;;;5038518;28;19909;-80
2022/03/20 06:16:43;;;;;;;;;;;;;;;;;;5039141;28;19929;-79
2022/03/20 06:19:08;;;;;;;;;;;;;;;;;;5038065;28;19910;-77
2022/03/20 06:21:34;;;;;;;;;;;;;;;;;;5038265;28;19955;-81
2022/03/20 06:23:59;;;;;;;;;;;;;;;;;;5039178;28;19921;-78
2022/03/20 06:26:24;;;;;;;;;;;;;;;;;;5040346;28;19909;-77
2022/03/20 06:28:49;;;;;;;;;;;;;;;;;;5021902;28;19916;-79
2022/03/20 06:31:15;;;;;;;;;;;;;;;;;;5022982;28;19952;-81
2022/03/20 06:33:40;;;;;;;;;;;;;;;;;;5022194;28;19964;-78
2022/03/20 06:36:05;;;;;;;;;;;;;;;;;;5022853;28;19909;-79
2022/03/20 06:38:30;;;;;;;;;;;;;;;;;;5040726;28;19956;-79
2022/03/20 06:40:55;;;;;;;;;;;;;;;;;;5040426;28;19921;-78
2022/03/20 06:43:20;;;;;;;;;;;;;;;;;;5021749;28;20282;-77
2022/03/20 06:45:46;;;;;;;;;;;;;;;;;;5039859;28;19904;-80
2022/03/20 06:48:12;;;;;;;;;;;;;;;;;;5022759;28;19916;-79
2022/03/20 06:50:37;;;;;;;;;;;;;;;;;;5024198;28;19917;-77
2022/03/20 06:53:04;;;;;;;;;;;;;;;;;;5043398;28;19913;-79
2022/03/20 06:55:30;;;;;;;;;;;;;;;;;;5026452;28;19897;-78
2022/03/20 06:57:55;;;;;;;;;;;;;;;;;;5026798;28;19915;-79
2022/03/20 07:00:20;;;;;;;;;;;;;;;;;;5026383;28;20391;-78
2022/03/20 07:02:45;;;;;;;;;;;;;;;;;;5026163;28;19995;-80
2022/03/20 07:05:11;;;;;;;;;;;;;;;;;;5027321;28;19920;-79
2022/03/20 07:07:36;;;;;;;;;;;;;;;;;;5026454;28;19909;-79
2022/03/20 07:10:02;;;;;;;;;;;;;;;;;;5043689;28;19940;-78
2022/03/20 07:12:27;;;;;;;;;;;;;;;;;;5026572;28;19932;-80
2022/03/20 07:14:54;;;;;;;;;;;;;;;;;;5044414;28;19905;-79
2022/03/20 07:17:19;;;;;;;;;;;;;;;;;;5026060;28;19913;-79
2022/03/20 07:19:44;;;;;;;;;;;;;;;;;;5026234;28;19906;-79
2022/03/20 07:22:09;;;;;;;;;;;;;;;;;;5026959;28;20371;-81
2022/03/20 07:24:34;;;;;;;;;;;;;;;;;;5033309;28;19921;-78
2022/03/20 07:29:43;;;;;;;;;;;;;;;;;;5044410;28;19964;-79
2022/03/20 07:32:09;;;;;;;;;;;;;;;;;;5042449;28;19909;-79
2022/03/20 07:34:34;;;;;;;;;;;;;;;;;;5041439;28;19905;-80
2022/03/20 07:37:00;;;;;;;;;;;;;;;;;;5040185;28;20426;-77
2022/03/20 07:39:25;;;;;;;;;;;;;;;;;;5038916;28;19905;-79
2022/03/20 07:41:50;;;;;;;;;;;;;;;;;;5040508;28;19924;-79
2022/03/20 07:44:17;;;;;;;;;;;;;;;;;;5039316;28;19905;-80
2022/03/20 07:46:43;;;;;;;;;;;;;;;;;;5038315;28;19935;-80
2022/03/20 07:49:08;;;;;;;;;;;;;;;;;;5040565;28;19913;-79
2022/03/20 07:51:33;;;;;;;;;;;;;;;;;;5039362;28;19909;-79
2022/03/20 07:53:58;;;;;;;;;;;;;;;;;;5039507;28;19913;-79
2022/03/20 07:56:24;;;;;;;;;;;;;;;;;;5039870;28;19909;-79
2022/03/20 07:58:49;;;;;;;;;;;;;;;;;;5039546;28;19909;-79
2022/03/20 08:01:14;;;;;;;;;;;;;;;;;;5039251;28;19995;-79
2022/03/20 08:03:41;;;;;;;;;;;;;;;;;;5037946;28;20384;-85
2022/03/20 08:06:07;;;;;;;;;;;;;;;;;;5040112;28;19936;-79
2022/03/20 08:08:32;;;;;;;;;;;;;;;;;;5039990;28;20347;-82
2022/03/20 08:10:57;;;;;;;;;;;;;;;;;;5038572;28;20355;-84
2022/03/20 08:13:22;;;;;;;;;;;;;;;;;;5041212;28;20380;-84
2022/03/20 08:15:47;;;;;;;;;;;;;;;;;;5040490;28;19951;-83
2022/03/20 08:18:13;;;;;;;;;;;;;;;;;;5040149;28;20000;-81
2022/03/20 08:20:39;;;;;;;;;;;;;;;;;;5040313;28;19913;-83
2022/03/20 08:23:04;;;;;;;;;;;;;;;;;;5041394;28;19909;-82
2022/03/20 08:25:29;;;;;;;;;;;;;;;;;;5039873;28;19921;-83
2022/03/20 08:27:54;;;;;;;;;;;;;;;;;;5038630;28;19913;-84
2022/03/20 08:30:20;;;;;;;;;;;;;;;;;;5040092;28;19917;-83
2022/03/20 08:32:47;;;;;;;;;;;;;;;;;;5039191;28;19916;-81
2022/03/20 08:35:14;;;;;;;;;;;;;;;;;;5039740;28;19913;-81
2022/03/20 08:37:39;;;;;;;;;;;;;;;;;;5038561;28;19910;-81
2022/03/20 08:40:04;;;;;;;;;;;;;;;;;;5040791;28;20031;-82
2022/03/20 08:42:29;;;;;;;;;;;;;;;;;;5039705;28;19913;-81
2022/03/20 08:44:54;;;;;;;;;;;;;;;;;;5038381;28;19952;-83
2022/03/20 08:47:20;;;;;;;;;;;;;;;;;;5038067;28;19948;-83
2022/03/20 08:49:45;;;;;;;;;;;;;;;;;;5038389;28;20016;-83
2022/03/20 08:52:10;;;;;;;;;;;;;;;;;;5038284;28;20016;-81
2022/03/20 08:54:35;;;;;;;;;;;;;;;;;;5037924;28;19901;-84
2022/03/20 08:57:01;;;;;;;;;;;;;;;;;;5030090;28;20000;-82
2022/03/20 08:59:26;;;;;;;;;;;;;;;;;;5040293;28;19920;-81
2022/03/20 09:01:51;;;;;;;;;;;;;;;;;;5033538;28;19909;-82
2022/03/20 09:04:16;;;;;;;;;;;;;;;;;;5022544;28;19917;-82
2022/03/20 09:06:44;;;;;;;;;;;;;;;;;;5000595;28;19985;-84
2022/03/20 09:09:13;;;;;;;;;;;;;;;;;;5015992;28;19906;-80
2022/03/20 09:11:38;;;;;;;;;;;;;;;;;;5013583;28;19937;-82
2022/03/20 09:14:03;;;;;;;;;;;;;;;;;;5014196;28;19918;-80
2022/03/20 09:19:12;;;;;;;;;;;;;;;;;;4999678;28;19920;-82
2022/03/20 09:21:37;;;;;;;;;;;;;;;;;;4998650;28;19914;-82
2022/03/20 09:24:02;;;;;;;;;;;;;;;;;;5000087;28;19944;-81
2022/03/20 09:26:28;;;;;;;;;;;;;;;;;;4998307;28;19914;-81
2022/03/20 09:28:54;;;;;;;;;;;;;;;;;;4999432;28;19916;-82
2022/03/20 09:31:19;;;;;;;;;;;;;;;;;;4998547;28;19909;-82
2022/03/20 09:33:45;;;;;;;;;;;;;;;;;;4996712;28;20352;-81
2022/03/20 09:36:11;;;;;;;;;;;;;;;;;;4998783;28;19910;-82
2022/03/20 09:38:36;;;;;;;;;;;;;;;;;;4997643;28;20287;-81
2022/03/20 09:41:03;;;;;;;;;;;;;;;;;;4999222;28;20264;-79
2022/03/20 09:43:28;;;;;;;;;;;;;;;;;;4996445;28;19917;-79
2022/03/20 09:45:53;;;;;;;;;;;;;;;;;;4996579;28;19909;-80
2022/03/20 09:48:18;;;;;;;;;;;;;;;;;;4996996;28;19921;-81
2022/03/20 09:50:43;;;;;;;;;;;;;;;;;;4997406;28;19918;-80
2022/03/20 09:53:09;;;;;;;;;;;;;;;;;;4996846;28;20287;-81
2022/03/20 09:55:34;;;;;;;;;;;;;;;;;;4997882;28;19956;-79
2022/03/20 09:58:00;;;;;;;;;;;;;;;;;;4997619;28;19945;-81
2022/03/20 10:00:25;;;;;;;;;;;;;;;;;;4997522;28;19917;-81
2022/03/20 10:02:50;;;;;;;;;;;;;;;;;;4998454;28;19917;-81
2022/03/20 10:05:15;;;;;;;;;;;;;;;;;;4996470;28;19909;-80
2022/03/20 10:07:42;;;;;;;;;;;;;;;;;;4995741;28;20029;-80
2022/03/20 10:10:07;;;;;;;;;;;;;;;;;;4997221;28;19921;-80
2022/03/20 10:12:32;;;;;;;;;;;;;;;;;;4996418;28;19913;-80
2022/03/20 10:14:57;;;;;;;;;;;;;;;;;;4996182;28;19910;-80
2022/03/20 10:17:22;;;;;;;;;;;;;;;;;;4998175;28;19921;-79
2022/03/20 10:19:47;;;;;;;;;;;;;;;;;;4997750;28;20359;-81
2022/03/20 10:22:14;;;;;;;;;;;;;;;;;;4996888;28;19918;-82
2022/03/20 10:24:40;;;;;;;;;;;;;;;;;;5003498;28;20494;-80
2022/03/20 10:27:05;;;;;;;;;;;;;;;;;;5016648;28;20364;-84
2022/03/20 10:29:30;;;;;;;;;;;;;;;;;;5018481;28;20063;-84
2022/03/20 10:31:55;;;;;;;;;;;;;;;;;;5019687;28;19910;-83
2022/03/20 10:34:20;;;;;;;;;;;;;;;;;;5017641;28;19933;-82
2022/03/20 10:36:45;;;;;;;;;;;;;;;;;;5016726;28;19917;-81
2022/03/20 10:39:12;;;;;;;;;;;;;;;;;;5001964;28;19906;-82
2022/03/20 10:41:38;;;;;;;;;;;;;;;;;;5015896;28;19909;-81
2022/03/20 10:44:03;;;;;;;;;;;;;;;;;;5015987;28;19960;-82
2022/03/20 10:46:28;;;;;;;;;;;;;;;;;;5016977;28;19994;-81
2022/03/20 10:48:54;;;;;;;;;;;;;;;;;;5000738;28;19906;-83
2022/03/20 10:51:19;;;;;;;;;;;;;;;;;;5015058;28;20007;-82
2022/03/20 10:53:44;;;;;;;;;;;;;;;;;;5000509;28;19913;-81
2022/03/20 10:56:10;;;;;;;;;;;;;;;;;;5016523;28;19910;-82
2022/03/20 10:58:35;;;;;;;;;;;;;;;;;;5000002;28;19917;-80
2022/03/20 11:01:00;;;;;;;;;;;;;;;;;;5015761;28;19910;-81
2022/03/20 11:03:25;;;;;;;;;;;;;;;;;;5000060;28;20360;-81
2022/03/20 11:05:51;;;;;;;;;;;;;;;;;;4999265;28;19910;-80
2022/03/20 11:08:19;;;;;;;;;;;;;;;;;;5014373;28;19992;-82
2022/03/20 11:10:44;;;;;;;;;;;;;;;;;;5014780;28;20012;-82
2022/03/20 11:13:10;;;;;;;;;;;;;;;;;;5015353;28;19910;-82
2022/03/20 11:15:37;;;;;;;;;;;;;;;;;;5013095;28;19910;-81
2022/03/20 11:18:02;;;;;;;;;;;;;;;;;;5014191;28;20001;-81
2022/03/20 11:20:27;;;;;;;;;;;;;;;;;;4999088;28;19948;-81
2022/03/20 11:22:54;;;;;;;;;;;;;;;;;;5018453;28;20344;-80
2022/03/20 11:25:20;;;;;;;;;;;;;;;;;;5028876;28;19925;-81
2022/03/20 11:27:45;;;;;;;;;;;;;;;;;;5035749;28;19909;-81
2022/03/20 11:30:10;;;;;;;;;;;;;;;;;;5036532;28;19923;-83
2022/03/20 11:32:38;;;;;;;;;;;;;;;;;;5037849;28;19909;-79
2022/03/20 11:35:04;;;;;;;;;;;;;;;;;;5036031;28;19960;-85
2022/03/20 11:37:29;;;;;;;;;;;;;;;;;;5037544;28;20338;-81
2022/03/20 11:39:54;;;;;;;;;;;;;;;;;;5038910;28;19996;-81
2022/03/20 11:42:20;;;;;;;;;;;;;;;;;;5038760;28;20435;-81
2022/03/20 11:44:45;;;;;;;;;;;;;;;;;;5038467;28;19900;-82
2022/03/20 11:47:10;;;;;;;;;;;;;;;;;;5037876;28;19913;-80
2022/03/20 11:49:35;;;;;;;;;;;;;;;;;;5035734;28;19913;-79
2022/03/20 11:52:01;;;;;;;;;;;;;;;;;;5037699;28;19923;-79
2022/03/20 11:54:26;;;;;;;;;;;;;;;;;;5037847;28;20390;-79
2022/03/20 11:56:52;;;;;;;;;;;;;;;;;;5037919;28;19909;-79
2022/03/20 11:59:17;;;;;;;;;;;;;;;;;;5036143;28;19921;-80
2022/03/20 12:01:43;;;;;;;;;;;;;;;;;;5038173;28;19913;-80
2022/03/20 12:04:08;;;;;;;;;;;;;;;;;;5037731;28;19909;-80
2022/03/20 12:06:33;;;;;;;;;;;;;;;;;;5035730;28;20255;-80
2022/03/20 12:08:59;;;;;;;;;;;;;;;;;;5034543;28;19909;-81
2022/03/20 12:11:24;;;;;;;;;;;;;;;;;;5034604;28;19920;-80
2022/03/20 12:13:49;;;;;;;;;;;;;;;;;;5035847;28;20322;-81
2022/03/20 12:16:14;;;;;;;;;;;;;;;;;;5035333;28;19913;-80
2022/03/20 12:18:39;;;;;;;;;;;;;;;;;;5037671;28;19932;-80
2022/03/20 12:21:05;;;;;;;;;;;;;;;;;;5035977;28;20311;-80
2022/03/20 12:23:33;;;;;;;;;;;;;;;;;;5035815;28;19909;-80
2022/03/20 12:25:58;;;;;;;;;;;;;;;;;;5036897;28;19960;-81
2022/03/20 12:28:23;;;;;;;;;;;;;;;;;;5035368;28;19944;-80
2022/03/20 12:30:48;;;;;;;;;;;;;;;;;;5017292;28;20010;-80
2022/03/20 12:33:13;;;;;;;;;;;;;;;;;;5017719;28;19909;-81
2022/03/20 12:35:38;;;;;;;;;;;;;;;;;;5036067;28;19963;-80
2022/03/20 12:38:03;;;;;;;;;;;;;;;;;;5018088;28;19909;-79
2022/03/20 12:40:30;;;;;;;;;;;;;;;;;;5036777;28;19941;-79
2022/03/20 12:42:55;;;;;;;;;;;;;;;;;;5006923;28;19914;-79
2022/03/20 12:45:21;;;;;;;;;;;;;;;;;;5007571;28;20252;-79
2022/03/20 12:47:46;;;;;;;;;;;;;;;;;;5012105;28;20393;-79
2022/03/20 12:50:12;;;;;;;;;;;;;;;;;;5015393;28;20360;-80
2022/03/20 12:52:37;;;;;;;;;;;;;;;;;;5025946;28;19925;-80
2022/03/20 12:55:02;;;;;;;;;;;;;;;;;;5023812;28;19920;-80
2022/03/20 12:57:27;;;;;;;;;;;;;;;;;;5013669;28;19910;-80
2022/03/20 12:59:52;;;;;;;;;;;;;;;;;;5007380;28;20011;-81
2022/03/20 13:02:17;;;;;;;;;;;;;;;;;;5005346;28;20464;-80
2022/03/20 13:04:47;;;;;;;;;;;;;;;;;;5008033;28;19921;-81
2022/03/20 13:07:12;;;;;;;;;;;;;;;;;;4994222;28;19917;-81
2022/03/20 13:09:37;;;;;;;;;;;;;;;;;;4997056;28;19918;-80
2022/03/20 13:12:03;;;;;;;;;;;;;;;;;;4995667;28;19918;-79
2022/03/20 13:14:28;;;;;;;;;;;;;;;;;;5005391;28;19916;-81
2022/03/20 13:16:53;;;;;;;;;;;;;;;;;;4999568;28;19955;-82
2022/03/20 13:19:19;;;;;;;;;;;;;;;;;;4999736;28;19917;-83
2022/03/20 13:21:45;;;;;;;;;;;;;;;;;;5000608;28;19937;-82
2022/03/20 13:24:10;;;;;;;;;;;;;;;;;;5018073;28;20020;-81
2022/03/20 13:26:35;;;;;;;;;;;;;;;;;;5017234;28;19957;-81
2022/03/20 13:29:00;;;;;;;;;;;;;;;;;;5016955;28;19909;-81
2022/03/20 13:31:25;;;;;;;;;;;;;;;;;;4997712;28;19964;-81
2022/03/20 13:33:51;;;;;;;;;;;;;;;;;;5016520;28;19956;-83
2022/03/20 13:36:16;;;;;;;;;;;;;;;;;;4998250;28;19917;-83
2022/03/20 13:38:45;;;;;;;;;;;;;;;;;;5000089;28;19956;-83
2022/03/20 13:41:11;;;;;;;;;;;;;;;;;;5017553;28;19910;-82
2022/03/20 13:43:36;;;;;;;;;;;;;;;;;;4995660;28;19976;-81
2022/03/20 13:46:01;;;;;;;;;;;;;;;;;;4979332;28;19921;-82
2022/03/20 13:48:27;;;;;;;;;;;;;;;;;;4996126;28;20254;-81
2022/03/20 13:50:53;;;;;;;;;;;;;;;;;;5036305;28;19921;-81
2022/03/20 13:53:18;;;;;;;;;;;;;;;;;;5037001;28;19917;-80
2022/03/20 13:55:43;;;;;;;;;;;;;;;;;;5018259;28;19913;-81
2022/03/20 13:58:09;;;;;;;;;;;;;;;;;;5018400;28;19915;-84
2022/03/20 14:00:35;;;;;;;;;;;;;;;;;;5018468;28;19963;-82
2022/03/20 14:03:02;;;;;;;;;;;;;;;;;;5018913;28;19913;-81
2022/03/20 14:05:27;;;;;;;;;;;;;;;;;;5018629;28;19909;-81
2022/03/20 14:07:52;;;;;;;;;;;;;;;;;;5011745;28;19925;-83
2022/03/20 14:10:17;;;;;;;;;;;;;;;;;;4997068;28;19924;-81
2022/03/20 14:12:42;;;;;;;;;;;;;;;;;;4994953;28;19909;-82
2022/03/20 14:15:08;;;;;;;;;;;;;;;;;;4995306;28;19917;-82
2022/03/20 14:17:34;;;;;;;;;;;;;;;;;;4996331;28;19910;-81
2022/03/20 14:19:59;;;;;;;;;;;;;;;;;;4996140;28;19916;-80
2022/03/20 14:22:24;;;;;;;;;;;;;;;;;;4996884;28;19917;-81
2022/03/20 14:24:57;;;;;;;;;;;;;;;;;;5004143;28;19921;-82
2022/03/20 14:27:22;;;;;;;;;;;;;;;;;;5016628;28;20321;-81
2022/03/20 14:40:49;;;;;;;;;;;;;;;;;;5025594;28;19959;-83
2022/03/20 14:43:14;;;;;;;;;;;;;;;;;;5023165;28;19920;-82
2022/03/20 14:45:39;;;;;;;;;;;;;;;;;;5024410;28;19910;-81
2022/03/20 14:48:04;;;;;;;;;;;;;;;;;;5010582;28;19909;-81
2022/03/20 14:50:29;;;;;;;;;;;;;;;;;;5008694;28;19925;-81
2022/03/20 14:52:54;;;;;;;;;;;;;;;;;;5024569;28;19917;-83
2022/03/20 14:55:20;;;;;;;;;;;;;;;;;;5006137;28;19920;-81
2022/03/20 14:57:45;;;;;;;;;;;;;;;;;;5006197;28;19909;-81
2022/03/20 15:00:10;;;;;;;;;;;;;;;;;;5015000;28;19919;-80
2022/03/20 15:02:35;;;;;;;;;;;;;;;;;;5028445;28;19897;-81
2022/03/20 15:05:00;;;;;;;;;;;;;;;;;;5001635;28;19969;-81
2022/03/20 15:07:25;;;;;;;;;;;;;;;;;;5021962;28;19909;-81
2022/03/20 15:18:03;;;;;;;;;;;;;;;;;;5025038;28;19987;-87
2022/03/20 15:20:30;;;;;;;;;;;;;;;;;;5034659;28;20016;-88
2022/03/20 15:22:57;;;;;;;;;;;;;;;;;;5031948;28;20353;-85
2022/03/20 15:25:22;;;;;;;;;;;;;;;;;;5034902;28;20030;-87
2022/03/20 15:27:47;;;;;;;;;;;;;;;;;;5037413;28;19909;-90
2022/03/20 15:30:14;;;;;;;;;;;;;;;;;;5037430;28;19921;-87
2022/03/20 15:32:40;;;;;;;;;;;;;;;;;;5037870;28;19910;-88
2022/03/20 15:35:06;;;;;;;;;;;;;;;;;;5021190;28;20365;-88
2022/03/20 15:37:31;;;;;;;;;;;;;;;;;;5035821;28;19944;-87
2022/03/20 15:39:56;;;;;;;;;;;;;;;;;;5037657;28;19913;-89
2022/03/20 15:42:21;;;;;;;;;;;;;;;;;;5037196;28;20007;-88
2022/03/20 15:44:46;;;;;;;;;;;;;;;;;;5038038;28;19999;-88
2022/03/20 15:47:11;;;;;;;;;;;;;;;;;;5038342;28;19901;-88
2022/03/20 15:49:37;;;;;;;;;;;;;;;;;;5022766;28;19918;-87
2022/03/20 15:52:04;;;;;;;;;;;;;;;;;;5037186;28;20316;-82
2022/03/20 15:54:29;;;;;;;;;;;;;;;;;;5022477;28;20324;-86
2022/03/20 15:56:54;;;;;;;;;;;;;;;;;;5037593;28;19949;-83
2022/03/20 15:59:19;;;;;;;;;;;;;;;;;;5036852;28;19913;-85
2022/03/20 16:01:44;;;;;;;;;;;;;;;;;;5036042;28;19998;-85
2022/03/20 16:04:10;;;;;;;;;;;;;;;;;;5035798;28;19906;-84
2022/03/20 16:06:35;;;;;;;;;;;;;;;;;;5036508;28;19909;-85
2022/03/20 16:09:00;;;;;;;;;;;;;;;;;;5020723;28;19910;-85
2022/03/20 16:11:26;;;;;;;;;;;;;;;;;;5020964;28;19945;-83
2022/03/20 16:13:51;;;;;;;;;;;;;;;;;;5035061;28;19967;-85
2022/03/20 16:16:16;;;;;;;;;;;;;;;;;;5020061;28;19914;-86
2022/03/20 16:18:41;;;;;;;;;;;;;;;;;;5035702;28;19956;-83
2022/03/20 16:21:06;;;;;;;;;;;;;;;;;;5036455;28;19910;-83
2022/03/20 16:28:59;;;;;;;;;;;;;;;;;;5021235;28;19959;-83
2022/03/20 16:31:24;;;;;;;;;;;;;;;;;;5033663;28;19917;-83
2022/03/20 16:33:50;;;;;;;;;;;;;;;;;;5032909;28;20493;-82
2022/03/20 16:36:15;;;;;;;;;;;;;;;;;;5034072;28;19942;-82
2022/03/20 16:38:40;;;;;;;;;;;;;;;;;;5033035;28;19962;-82
2022/03/20 16:41:05;;;;;;;;;;;;;;;;;;5018360;28;19916;-83
2022/03/20 16:43:31;;;;;;;;;;;;;;;;;;5033834;28;19898;-83
2022/03/20 16:45:56;;;;;;;;;;;;;;;;;;5032734;28;19999;-81
2022/03/20 16:48:22;;;;;;;;;;;;;;;;;;5017797;28;19948;-82
2022/03/20 16:50:47;;;;;;;;;;;;;;;;;;5054466;28;19917;-80
2022/03/20 16:53:14;;;;;;;;;;;;;;;;;;5020148;28;19917;-83
2022/03/20 16:55:39;;;;;;;;;;;;;;;;;;5043375;28;20053;-81
2022/03/20 16:58:04;;;;;;;;;;;;;;;;;;5026262;28;20015;-81
2022/03/20 17:00:29;;;;;;;;;;;;;;;;;;5026316;28;19909;-85
2022/03/20 17:02:54;;;;;;;;;;;;;;;;;;5027301;28;19964;-90
2022/03/20 17:05:19;;;;;;;;;;;;;;;;;;5053157;28;19909;-85
2022/03/20 17:07:48;;;;;;;;;;;;;;;;;;5030770;28;19917;-86
2022/03/20 17:10:13;;;;;;;;;;;;;;;;;;5039221;28;19952;-83
2022/03/20 17:12:41;;;;;;;;;;;;;;;;;;5039608;28;19909;-86
2022/03/20 17:15:06;;;;;;;;;;;;;;;;;;5035513;28;19984;-85
2022/03/20 17:17:31;;;;;;;;;;;;;;;;;;5033773;28;19917;-85
2022/03/20 17:19:58;;;;;;;;;;;;;;;;;;5031258;28;19913;-84
2022/03/20 17:22:23;;;;;;;;;;;;;;;;;;5019729;28;19918;-82
2022/03/20 17:24:48;;;;;;;;;;;;;;;;;;5024427;28;19981;-87
2022/03/20 17:27:15;;;;;;;;;;;;;;;;;;5016896;28;19922;-84
2022/03/20 17:29:40;;;;;;;;;;;;;;;;;;4994361;28;19929;-83
2022/03/20 17:32:05;;;;;;;;;;;;;;;;;;4998854;28;19967;-85